Time;durP1;ratioP1;P1;durP2;ratioP2;P2;SDS_P1;SDS_P2;PMS_P1;PMS_P2;Temp;Humidity;BMP_temperature;BMP_pressure;BME280_temperature;BME280_humidity;BME280_pressure;Samples;Min_cycle;Max_cycle;Signal;HPM_P1;HPM_P2
2022/07/16 00:02:50;;;;;;;11.23;10.43;;;12.90;99.90;;;;;;5034316;28;20463;-68
2022/07/16 00:05:19;;;;;;;12.40;10.60;;;12.90;99.90;;;;;;5036868;28;20470;-67
2022/07/16 00:07:46;;;;;;;12.13;10.43;;;12.90;99.90;;;;;;5038693;28;20493;-68
2022/07/16 00:10:13;;;;;;;11.90;11.00;;;12.70;99.90;;;;;;5045791;28;20467;-67
2022/07/16 00:12:41;;;;;;;11.30;10.50;;;12.70;99.90;;;;;;5035408;28;20851;-68
2022/07/16 00:15:09;;;;;;;11.10;10.20;;;12.70;99.90;;;;;;5034209;28;20527;-68
2022/07/16 00:17:36;;;;;;;11.90;10.90;;;12.70;99.90;;;;;;5040734;28;20518;-67
2022/07/16 00:20:04;;;;;;;11.23;10.40;;;12.80;99.90;;;;;;5041098;28;20838;-68
2022/07/16 00:22:32;;;;;;;11.47;10.47;;;13.00;99.90;;;;;;5040769;28;20837;-68
2022/07/16 00:25:00;;;;;;;12.17;10.93;;;13.10;99.90;;;;;;5040652;28;20475;-68
2022/07/16 00:27:28;;;;;;;11.80;10.83;;;13.10;99.90;;;;;;5038140;28;20470;-67
2022/07/16 00:29:55;;;;;;;13.40;11.90;;;13.10;99.90;;;;;;5037855;28;20576;-68
2022/07/16 00:32:22;;;;;;;12.13;11.30;;;13.10;99.90;;;;;;5042480;28;20460;-67
2022/07/16 00:34:49;;;;;;;12.80;11.77;;;13.00;99.90;;;;;;5035516;28;20483;-68
2022/07/16 00:37:16;;;;;;;13.13;12.03;;;13.10;99.90;;;;;;5045141;28;20464;-68
2022/07/16 00:39:46;;;;;;;13.07;11.97;;;13.40;99.90;;;;;;5040362;28;20492;-68
2022/07/16 00:42:12;;;;;;;13.47;11.57;;;13.60;99.90;;;;;;5041779;28;20815;-68
2022/07/16 00:44:40;;;;;;;12.60;11.77;;;13.70;99.90;;;;;;5037234;28;20927;-67
2022/07/16 00:47:07;;;;;;;12.60;11.60;;;13.70;99.90;;;;;;5043102;28;20470;-67
2022/07/16 00:49:34;;;;;;;14.10;11.50;;;13.70;99.90;;;;;;5042317;28;20463;-68
2022/07/16 00:52:01;;;;;;;11.47;10.77;;;13.50;99.90;;;;;;5041958;28;20460;-67
2022/07/16 00:54:28;;;;;;;12.97;12.17;;;13.30;99.90;;;;;;5042783;28;20464;-68
2022/07/16 00:56:57;;;;;;;13.30;12.00;;;13.00;99.90;;;;;;5042185;28;20460;-68
2022/07/16 00:59:39;;;;;;;12.83;11.83;;;12.80;99.90;;;;;;5041650;28;20533;-68
2022/07/16 01:02:06;;;;;;;14.20;13.00;;;12.60;99.90;;;;;;5038028;28;20825;-68
2022/07/16 01:04:35;;;;;;;14.47;13.03;;;12.50;99.90;;;;;;5043196;28;20585;-67
2022/07/16 01:07:03;;;;;;;12.90;11.73;;;12.60;99.90;;;;;;5036376;28;20564;-67
2022/07/16 01:09:32;;;;;;;13.23;12.30;;;12.70;99.90;;;;;;5044910;28;20554;-67
2022/07/16 01:12:01;;;;;;;12.33;11.53;;;12.70;99.90;;;;;;5038250;28;20543;-67
2022/07/16 01:14:29;;;;;;;13.93;12.83;;;12.70;99.90;;;;;;5041841;28;20464;-68
2022/07/16 01:16:56;;;;;;;13.63;12.30;;;12.70;99.90;;;;;;5039409;28;20715;-67
2022/07/16 01:19:24;;;;;;;14.77;13.30;;;12.70;99.90;;;;;;5040621;28;20515;-68
2022/07/16 01:21:50;;;;;;;15.07;13.77;;;12.70;99.90;;;;;;5040029;28;20461;-68
2022/07/16 01:24:19;;;;;;;12.70;11.60;;;12.70;99.90;;;;;;5034962;28;20478;-68
2022/07/16 01:26:46;;;;;;;17.83;14.27;;;12.80;99.90;;;;;;5038467;28;20469;-68
2022/07/16 01:29:13;;;;;;;14.30;13.07;;;12.80;99.90;;;;;;5037713;28;20474;-68
2022/07/16 01:31:40;;;;;;;14.83;12.60;;;12.90;99.90;;;;;;5037361;28;20460;-68
2022/07/16 01:36:56;;;;;;;13.97;12.60;;;13.00;99.90;;;;;;5041266;28;20982;-67
2022/07/16 01:39:26;;;;;;;12.83;11.77;;;12.90;99.90;;;;;;5040519;28;20777;-67
2022/07/16 01:41:53;;;;;;;11.80;11.10;;;12.80;99.90;;;;;;5038383;28;20625;-68
2022/07/16 01:44:21;;;;;;;13.10;12.10;;;12.70;99.90;;;;;;5036131;28;20825;-67
2022/07/16 01:46:48;;;;;;;12.67;11.77;;;12.60;99.90;;;;;;5036924;28;20494;-68
2022/07/16 01:49:15;;;;;;;12.40;11.40;;;12.50;99.90;;;;;;5037355;28;20465;-67
2022/07/16 01:51:42;;;;;;;13.03;12.10;;;12.40;99.90;;;;;;5041433;28;20476;-68
2022/07/16 01:54:09;;;;;;;12.20;11.20;;;12.40;99.90;;;;;;5041879;28;20467;-68
2022/07/16 01:56:37;;;;;;;13.17;12.17;;;12.40;99.90;;;;;;5040075;28;20469;-67
2022/07/16 01:59:04;;;;;;;13.27;11.80;;;12.40;99.90;;;;;;5038806;28;20465;-67
2022/07/16 02:01:31;;;;;;;12.57;11.60;;;12.30;99.90;;;;;;5044041;28;20990;-68
2022/07/16 02:03:59;;;;;;;12.23;11.40;;;12.30;99.90;;;;;;5037672;28;20452;-67
2022/07/16 02:06:26;;;;;;;13.53;12.37;;;12.20;99.90;;;;;;5042418;28;20961;-68
2022/07/16 02:08:55;;;;;;;13.10;12.10;;;12.10;99.90;;;;;;5035634;28;20554;-67
2022/07/16 02:11:22;;;;;;;12.97;11.93;;;12.10;99.90;;;;;;5041839;28;20460;-68
2022/07/16 02:13:50;;;;;;;12.27;11.37;;;12.00;99.90;;;;;;5039515;28;20488;-67
2022/07/16 02:16:17;;;;;;;12.70;11.80;;;12.00;99.90;;;;;;5039077;28;20682;-67
2022/07/16 02:18:44;;;;;;;13.30;12.00;;;12.00;99.90;;;;;;5043015;28;20478;-68
2022/07/16 02:21:12;;;;;;;13.23;11.80;;;11.90;99.90;;;;;;5041280;28;20495;-67
2022/07/16 02:23:39;;;;;;;13.10;11.70;;;12.00;99.90;;;;;;5040447;28;20940;-68
2022/07/16 02:26:12;;;;;;;13.10;12.00;;;12.00;99.90;;;;;;5037745;28;20470;-68
2022/07/16 02:28:40;;;;;;;14.60;13.13;;;12.00;99.90;;;;;;5033708;28;20479;-67
2022/07/16 02:31:11;;;;;;;13.73;12.40;;;11.90;99.90;;;;;;5041556;28;20476;-67
2022/07/16 02:33:38;;;;;;;13.50;12.10;;;11.90;99.90;;;;;;5040316;28;20477;-68
2022/07/16 02:36:08;;;;;;;12.10;11.07;;;11.90;99.90;;;;;;5036950;28;20460;-67
2022/07/16 02:38:37;;;;;;;13.17;12.07;;;11.90;99.90;;;;;;5038594;28;20478;-69
2022/07/16 02:41:05;;;;;;;12.40;11.50;;;12.00;99.90;;;;;;5038946;28;20974;-67
2022/07/16 02:43:32;;;;;;;12.70;11.60;;;12.00;99.90;;;;;;5038335;28;20516;-67
2022/07/16 02:45:59;;;;;;;11.33;10.53;;;12.20;99.90;;;;;;5033236;28;20779;-67
2022/07/16 02:48:29;;;;;;;11.60;10.53;;;12.30;99.90;;;;;;5041802;28;20880;-68
2022/07/16 02:50:55;;;;;;;11.63;10.53;;;12.30;99.90;;;;;;5036001;28;20461;-67
2022/07/16 02:53:23;;;;;;;12.97;11.90;;;12.50;99.90;;;;;;5044073;28;20468;-68
2022/07/16 02:55:50;;;;;;;13.17;11.87;;;12.60;99.90;;;;;;5041415;28;20472;-68
2022/07/16 02:58:17;;;;;;;11.57;10.70;;;12.70;99.90;;;;;;5035964;28;20465;-68
2022/07/16 03:00:44;;;;;;;13.30;11.50;;;12.80;99.90;;;;;;5036355;28;20472;-69
2022/07/16 03:03:12;;;;;;;11.90;10.90;;;12.80;99.90;;;;;;5034003;28;20978;-68
2022/07/16 03:05:41;;;;;;;12.23;11.33;;;12.90;99.90;;;;;;5039799;28;20962;-69
2022/07/16 03:08:08;;;;;;;11.93;11.13;;;12.90;99.90;;;;;;5046074;28;20464;-68
2022/07/16 03:10:35;;;;;;;13.07;12.07;;;13.00;99.90;;;;;;5036272;28;20523;-69
2022/07/16 03:13:02;;;;;;;13.07;12.07;;;13.10;99.90;;;;;;5036027;28;20559;-67
2022/07/16 03:15:29;;;;;;;13.67;12.43;;;13.20;99.90;;;;;;5043372;28;20495;-68
2022/07/16 03:17:58;;;;;;;12.67;11.67;;;13.30;99.90;;;;;;5041386;28;20579;-67
2022/07/16 03:20:25;;;;;;;14.20;12.70;;;13.40;99.90;;;;;;5040930;28;20980;-67
2022/07/16 03:22:54;;;;;;;14.00;12.80;;;13.60;99.90;;;;;;5038674;28;20467;-68
2022/07/16 03:25:21;;;;;;;13.87;12.47;;;13.70;99.90;;;;;;5038094;28;20460;-68
2022/07/16 03:27:48;;;;;;;13.30;12.30;;;13.80;99.90;;;;;;5041702;28;20455;-67
2022/07/16 03:30:17;;;;;;;13.30;12.23;;;13.80;99.90;;;;;;5041160;28;20508;-68
2022/07/16 03:32:45;;;;;;;15.03;13.83;;;14.00;99.90;;;;;;5039199;28;21012;-67
2022/07/16 03:35:13;;;;;;;13.93;12.60;;;14.20;99.90;;;;;;5035117;28;21037;-68
2022/07/16 03:40:25;;;;;;;14.43;13.23;;;14.50;99.90;;;;;;5040415;28;20514;-68
2022/07/16 03:42:52;;;;;;;13.53;12.57;;;14.30;99.90;;;;;;5035863;28;20460;-68
2022/07/16 03:45:19;;;;;;;14.17;13.03;;;14.00;99.90;;;;;;5042939;28;20815;-68
2022/07/16 03:47:46;;;;;;;14.47;13.30;;;14.10;99.90;;;;;;5036208;28;20468;-69
2022/07/16 03:50:14;;;;;;;15.87;13.13;;;14.00;99.90;;;;;;5042164;28;20468;-67
2022/07/16 03:52:41;;;;;;;13.40;12.50;;;13.90;99.90;;;;;;5037743;28;21032;-68
2022/07/16 03:55:09;;;;;;;14.33;12.93;;;13.90;99.90;;;;;;5034937;28;20465;-68
2022/07/16 03:57:37;;;;;;;13.47;12.33;;;13.90;99.90;;;;;;5039028;28;20464;-68
2022/07/16 04:00:08;;;;;;;13.73;12.70;;;14.10;99.90;;;;;;5037927;28;20483;-69
2022/07/16 04:02:35;;;;;;;14.30;12.93;;;13.90;99.90;;;;;;5027518;28;20954;-67
2022/07/16 04:05:02;;;;;;;14.90;13.90;;;13.90;99.90;;;;;;5018878;28;20472;-69
2022/07/16 04:07:29;;;;;;;13.67;12.67;;;13.80;99.90;;;;;;5019238;28;20467;-68
2022/07/16 04:09:56;;;;;;;14.40;13.17;;;13.80;99.90;;;;;;5019567;28;20479;-67
2022/07/16 04:12:23;;;;;;;13.70;12.70;;;13.90;99.90;;;;;;5018862;28;20464;-68
2022/07/16 04:14:52;;;;;;;15.17;13.83;;;13.90;99.90;;;;;;5018645;28;20530;-67
2022/07/16 04:17:19;;;;;;;13.90;12.70;;;14.10;99.90;;;;;;5019360;28;21139;-68
2022/07/16 04:19:46;;;;;;;15.27;13.70;;;14.20;99.90;;;;;;5018767;28;20476;-68
2022/07/16 04:22:14;;;;;;;14.30;13.03;;;14.40;99.90;;;;;;5019239;28;20591;-67
2022/07/16 04:24:56;;;;;;;13.20;12.17;;;14.50;99.90;;;;;;5018596;28;20471;-67
2022/07/16 04:27:23;;;;;;;13.73;12.67;;;14.60;99.90;;;;;;5018787;28;20456;-68
2022/07/16 04:29:50;;;;;;;15.10;13.13;;;14.80;99.90;;;;;;5019814;28;20467;-67
2022/07/16 04:32:18;;;;;;;14.00;13.07;;;14.80;99.90;;;;;;5018553;28;20448;-67
2022/07/16 04:34:45;;;;;;;14.73;13.20;;;14.80;99.90;;;;;;5018819;28;20486;-68
2022/07/16 04:37:13;;;;;;;13.60;12.43;;;14.80;99.90;;;;;;5017910;28;20895;-68
2022/07/16 04:39:40;;;;;;;13.60;12.50;;;14.90;99.90;;;;;;5018954;28;20456;-68
2022/07/16 04:42:07;;;;;;;13.50;12.40;;;14.90;99.90;;;;;;5018294;28;20580;-68
2022/07/16 04:44:34;;;;;;;14.23;13.00;;;15.00;99.90;;;;;;5018780;28;20483;-68
2022/07/16 04:47:01;;;;;;;15.43;13.67;;;15.10;99.90;;;;;;5018537;28;20455;-68
2022/07/16 04:49:29;;;;;;;14.07;12.77;;;15.10;99.90;;;;;;5018845;28;20476;-68
2022/07/16 04:51:56;;;;;;;14.53;13.33;;;15.00;99.90;;;;;;5019353;28;20468;-68
2022/07/16 04:54:23;;;;;;;14.30;13.27;;;15.00;99.90;;;;;;5017819;28;20499;-67
2022/07/16 04:56:50;;;;;;;14.27;13.07;;;15.10;99.90;;;;;;5018641;28;20496;-68
2022/07/16 04:59:17;;;;;;;14.70;13.63;;;15.30;99.90;;;;;;5017681;28;20467;-68
2022/07/16 05:01:44;;;;;;;15.37;13.87;;;15.50;99.90;;;;;;5017936;28;20496;-68
2022/07/16 05:04:11;;;;;;;15.80;14.30;;;15.40;99.90;;;;;;5016545;28;20592;-68
2022/07/16 05:06:39;;;;;;;14.87;13.50;;;15.50;99.90;;;;;;5017405;28;20926;-67
2022/07/16 05:09:06;;;;;;;14.10;13.10;;;15.50;99.90;;;;;;5016220;28;20467;-68
2022/07/16 05:11:34;;;;;;;15.00;13.80;;;15.70;99.90;;;;;;5017015;28;20597;-68
2022/07/16 05:14:01;;;;;;;14.90;13.40;;;15.80;99.90;;;;;;5016532;28;20452;-67
2022/07/16 05:16:28;;;;;;;15.13;14.00;;;15.80;99.90;;;;;;5016476;28;20496;-68
2022/07/16 05:18:54;;;;;;;14.70;12.63;;;15.90;99.90;;;;;;5016671;28;20979;-68
2022/07/16 05:21:21;;;;;;;13.70;12.80;;;16.00;99.90;;;;;;5017520;28;20496;-68
2022/07/16 05:23:50;;;;;;;14.87;13.57;;;16.00;99.90;;;;;;5018385;28;20473;-67
2022/07/16 05:26:17;;;;;;;14.33;13.07;;;16.00;99.90;;;;;;5017383;28;20464;-68
2022/07/16 05:28:45;;;;;;;15.70;14.60;;;16.20;99.90;;;;;;5017836;28;20854;-68
2022/07/16 05:31:11;;;;;;;13.93;13.03;;;16.20;99.90;;;;;;5015946;28;21328;-68
2022/07/16 05:33:38;;;;;;;14.13;13.33;;;16.20;99.90;;;;;;5015808;28;20556;-68
2022/07/16 05:36:06;;;;;;;15.10;13.80;;;16.30;99.90;;;;;;5016249;28;20475;-68
2022/07/16 05:38:33;;;;;;;14.30;12.90;;;16.40;99.90;;;;;;5030998;28;20460;-68
2022/07/16 05:41:02;;;;;;;14.63;13.53;;;16.60;99.90;;;;;;5038166;28;20492;-67
2022/07/16 05:43:29;;;;;;;14.80;13.47;;;16.50;99.90;;;;;;5022396;28;20553;-67
2022/07/16 05:45:56;;;;;;;13.87;12.57;;;16.80;99.90;;;;;;5015929;28;20465;-68
2022/07/16 05:48:23;;;;;;;14.83;13.70;;;16.80;99.90;;;;;;5015792;28;20973;-68
2022/07/16 05:50:50;;;;;;;15.37;13.80;;;16.80;99.90;;;;;;5015858;28;20467;-67
2022/07/16 05:53:16;;;;;;;14.87;13.50;;;16.80;99.90;;;;;;5015922;28;20468;-67
2022/07/16 05:55:43;;;;;;;15.83;13.47;;;16.90;99.90;;;;;;5015287;28;20463;-68
2022/07/16 05:58:11;;;;;;;15.13;13.77;;;17.10;99.90;;;;;;5015771;28;20464;-68
2022/07/16 06:00:38;;;;;;;14.53;13.53;;;17.30;99.90;;;;;;5015236;28;20467;-69
2022/07/16 06:03:05;;;;;;;15.63;14.63;;;17.50;99.90;;;;;;5012591;28;20481;-67
2022/07/16 06:05:32;;;;;;;19.47;14.40;;;17.50;99.90;;;;;;5013612;28;20493;-68
2022/07/16 06:07:59;;;;;;;14.60;13.63;;;17.70;99.90;;;;;;5013637;28;20464;-68
2022/07/16 06:10:26;;;;;;;15.80;14.27;;;17.80;99.90;;;;;;5014522;28;20527;-68
2022/07/16 06:12:52;;;;;;;15.73;14.27;;;17.80;99.90;;;;;;5014460;28;20457;-68
2022/07/16 06:15:21;;;;;;;14.60;13.47;;;17.80;99.90;;;;;;5014454;28;20494;-69
2022/07/16 06:17:48;;;;;;;15.77;14.27;;;17.80;99.90;;;;;;5016268;28;20453;-68
2022/07/16 06:20:15;;;;;;;18.03;16.03;;;17.90;99.90;;;;;;5014864;28;20974;-68
2022/07/16 06:22:42;;;;;;;15.90;14.53;;;17.90;99.90;;;;;;5016063;28;20499;-67
2022/07/16 06:25:09;;;;;;;16.03;14.73;;;17.80;99.90;;;;;;5015621;28;20482;-68
2022/07/16 06:27:40;;;;;;;15.60;14.17;;;17.80;99.90;;;;;;5015384;28;20472;-68
2022/07/16 06:30:08;;;;;;;15.73;14.60;;;17.90;99.90;;;;;;5015394;28;20476;-68
2022/07/16 06:32:36;;;;;;;15.80;14.67;;;18.10;99.90;;;;;;5014080;28;20902;-68
2022/07/16 06:35:04;;;;;;;15.93;14.60;;;18.10;99.90;;;;;;5013748;28;20559;-67
2022/07/16 06:37:31;;;;;;;15.70;14.70;;;18.00;99.90;;;;;;5030409;28;20687;-68
2022/07/16 06:39:58;;;;;;;15.00;13.90;;;18.10;99.90;;;;;;5044982;28;20485;-68
2022/07/16 06:42:25;;;;;;;15.73;14.50;;;18.00;99.90;;;;;;5014862;28;20499;-68
2022/07/16 06:44:52;;;;;;;15.83;14.73;;;18.10;99.90;;;;;;5014226;28;20464;-68
2022/07/16 06:47:19;;;;;;;16.17;14.63;;;18.20;99.90;;;;;;5014830;28;20476;-68
2022/07/16 06:49:47;;;;;;;15.83;14.57;;;18.10;99.90;;;;;;5014514;28;21165;-68
2022/07/16 06:52:14;;;;;;;16.77;14.47;;;18.10;99.90;;;;;;5014239;28;20479;-67
2022/07/16 06:54:41;;;;;;;16.30;15.20;;;18.10;99.90;;;;;;5013964;28;20496;-68
2022/07/16 06:57:08;;;;;;;17.20;15.33;;;18.10;99.90;;;;;;5014501;28;20464;-68
2022/07/16 06:59:35;;;;;;;16.57;14.83;;;18.10;99.90;;;;;;5014375;28;20467;-69
2022/07/16 07:02:02;;;;;;;16.43;14.27;;;18.10;99.90;;;;;;5014401;28;21065;-68
2022/07/16 07:04:29;;;;;;;16.03;14.83;;;18.20;99.90;;;;;;5014630;28;20472;-68
2022/07/16 07:06:58;;;;;;;16.23;14.93;;;18.30;99.90;;;;;;5013887;28;20455;-69
2022/07/16 07:09:25;;;;;;;15.80;14.60;;;18.40;99.90;;;;;;5012317;28;22418;-68
2022/07/16 07:11:51;;;;;;;16.30;14.90;;;18.40;99.90;;;;;;5014577;28;20491;-68
2022/07/16 07:14:19;;;;;;;16.20;14.60;;;18.50;99.90;;;;;;5023137;28;20468;-68
2022/07/16 07:16:46;;;;;;;15.30;14.20;;;18.60;99.90;;;;;;5031627;28;20633;-67
2022/07/16 07:19:13;;;;;;;18.33;15.13;;;18.70;99.90;;;;;;5037306;28;20975;-68
2022/07/16 07:21:40;;;;;;;16.60;15.27;;;18.90;99.90;;;;;;5035441;28;20486;-68
2022/07/16 07:24:08;;;;;;;17.60;16.20;;;19.00;99.90;;;;;;5013810;28;20475;-68
2022/07/16 07:26:35;;;;;;;16.40;15.00;;;19.20;99.90;;;;;;5014525;28;21176;-69
2022/07/16 07:29:02;;;;;;;17.70;16.30;;;19.50;99.90;;;;;;5014823;28;20456;-68
2022/07/16 07:31:29;;;;;;;16.60;15.20;;;19.70;99.90;;;;;;5014041;28;20482;-69
2022/07/16 07:33:57;;;;;;;16.37;15.27;;;19.70;99.90;;;;;;5017534;28;20562;-69
2022/07/16 07:36:24;;;;;;;16.57;15.40;;;20.20;99.90;;;;;;5016961;28;20476;-69
2022/07/16 07:38:50;;;;;;;17.63;16.03;;;20.40;99.90;;;;;;5015511;28;20476;-69
2022/07/16 07:41:19;;;;;;;16.87;15.43;;;20.60;99.90;;;;;;5015648;28;20466;-68
2022/07/16 07:43:45;;;;;;;16.80;15.60;;;21.10;99.90;;;;;;5016125;28;20468;-69
2022/07/16 07:46:12;;;;;;;16.60;15.40;;;21.10;99.90;;;;;;5015838;28;20468;-69
2022/07/16 07:48:39;;;;;;;17.87;16.47;;;20.90;99.90;;;;;;5013647;28;20962;-69
2022/07/16 07:51:06;;;;;;;16.43;15.33;;;20.70;99.90;;;;;;5017409;28;20543;-69
2022/07/16 07:53:34;;;;;;;17.10;15.57;;;21.00;99.90;;;;;;5016184;28;20473;-68
2022/07/16 07:56:01;;;;;;;17.37;16.10;;;21.20;99.90;;;;;;5013816;28;20464;-69
2022/07/16 07:58:29;;;;;;;16.50;15.13;;;21.30;99.90;;;;;;5015294;28;20490;-68
2022/07/16 08:00:56;;;;;;;20.30;16.30;;;21.30;99.90;;;;;;5016097;28;20893;-70
2022/07/16 08:03:23;;;;;;;15.80;14.83;;;21.30;99.90;;;;;;5015314;28;20871;-69
2022/07/16 08:05:50;;;;;;;15.60;14.70;;;21.40;99.90;;;;;;5017479;28;21053;-68
2022/07/16 08:08:17;;;;;;;15.50;14.47;;;21.40;99.90;;;;;;5018071;28;20978;-69
2022/07/16 08:10:45;;;;;;;15.27;14.30;;;21.70;99.90;;;;;;5017503;28;20543;-69
2022/07/16 08:13:12;;;;;;;15.23;14.00;;;21.90;99.90;;;;;;5017791;28;20810;-68
2022/07/16 08:15:40;;;;;;;16.20;14.90;;;22.20;99.90;;;;;;5016130;28;20533;-68
2022/07/16 08:18:07;;;;;;;13.80;13.10;;;22.70;99.90;;;;;;5016319;28;20530;-69
2022/07/16 08:20:34;;;;;;;13.63;12.73;;;22.50;99.90;;;;;;5016431;28;21073;-68
2022/07/16 08:23:01;;;;;;;14.20;13.30;;;22.50;99.90;;;;;;5017149;28;20476;-68
2022/07/16 08:25:45;;;;;;;13.93;13.30;;;22.50;99.90;;;;;;5015797;28;20549;-69
2022/07/16 08:28:12;;;;;;;13.47;12.77;;;22.80;99.90;;;;;;5022851;28;20823;-68
2022/07/16 08:30:40;;;;;;;14.00;13.20;;;23.00;99.90;;;;;;5016142;28;20457;-68
2022/07/16 08:33:09;;;;;;;14.23;13.13;;;22.70;99.90;;;;;;5016815;28;20477;-69
2022/07/16 08:35:36;;;;;;;13.97;13.20;;;22.40;99.90;;;;;;5017002;28;20471;-69
2022/07/16 08:38:03;;;;;;;14.50;13.50;;;22.20;99.90;;;;;;5022676;28;20464;-68
2022/07/16 08:40:29;;;;;;;13.70;13.00;;;21.80;99.90;;;;;;5049255;28;20460;-68
2022/07/16 08:42:57;;;;;;;14.10;13.03;;;21.30;99.90;;;;;;5040478;28;20590;-68
2022/07/16 08:45:24;;;;;;;14.53;13.40;;;21.40;99.90;;;;;;5029548;28;20841;-69
2022/07/16 08:47:53;;;;;;;14.73;13.47;;;21.70;99.90;;;;;;5017270;28;20459;-69
2022/07/16 08:50:21;;;;;;;13.00;12.30;;;22.00;99.90;;;;;;5016867;28;20455;-68
2022/07/16 08:52:50;;;;;;;13.37;12.57;;;22.40;99.90;;;;;;5017655;28;20476;-68
2022/07/16 08:55:19;;;;;;;13.40;12.60;;;23.00;99.90;;;;;;5017669;28;20471;-68
2022/07/16 08:57:49;;;;;;;12.40;11.90;;;23.20;99.90;;;;;;5020062;28;20468;-68
2022/07/16 09:00:16;;;;;;;13.07;12.37;;;23.10;99.90;;;;;;5007325;28;20821;-68
2022/07/16 09:02:45;;;;;;;13.80;13.00;;;22.70;99.90;;;;;;5027832;28;21029;-68
2022/07/16 09:05:13;;;;;;;13.93;13.23;;;22.10;99.90;;;;;;5035077;28;20485;-69
2022/07/16 09:07:40;;;;;;;13.83;13.20;;;21.60;99.90;;;;;;5017931;28;20468;-68
2022/07/16 09:10:09;;;;;;;13.73;13.13;;;21.50;99.90;;;;;;5027966;28;20463;-68
2022/07/16 09:12:39;;;;;;;13.87;12.87;;;21.20;99.90;;;;;;5013659;28;21053;-69
2022/07/16 09:15:25;;;;;;;13.63;13.03;;;21.60;99.90;;;;;;5009079;28;20500;-69
2022/07/16 09:18:12;;;;;;;14.10;13.10;;;22.20;98.60;;;;;;5011570;28;21094;-69
2022/07/16 09:20:43;;;;;;;14.03;13.33;;;23.20;98.10;;;;;;5007971;28;20471;-68
2022/07/16 09:23:26;;;;;;;13.57;12.97;;;23.70;96.70;;;;;;5009466;28;20868;-68
2022/07/16 09:25:55;;;;;;;14.07;13.37;;;23.80;96.50;;;;;;5014173;28;20503;-68
2022/07/16 09:28:23;;;;;;;14.57;13.87;;;24.00;94.90;;;;;;5032697;28;20449;-68
2022/07/16 09:30:50;;;;;;;14.20;13.60;;;24.60;93.60;;;;;;5038110;28;20466;-68
2022/07/16 09:33:19;;;;;;;13.47;12.83;;;25.00;93.30;;;;;;5022380;28;20464;-69
2022/07/16 09:35:49;;;;;;;14.40;13.47;;;25.10;92.70;;;;;;5009210;28;20472;-69
2022/07/16 09:38:16;;;;;;;14.53;13.80;;;25.50;91.90;;;;;;5010439;28;20510;-68
2022/07/16 09:40:45;;;;;;;13.70;13.00;;;24.50;92.10;;;;;;5009550;28;20507;-69
2022/07/16 09:43:23;;;;;;;13.93;13.13;;;24.50;92.40;;;;;;5011177;28;20925;-69
2022/07/16 09:45:58;;;;;;;13.87;13.27;;;25.20;92.80;;;;;;5010475;28;20484;-69
2022/07/16 09:48:26;;;;;;;14.27;13.27;;;24.80;92.60;;;;;;5010249;28;20529;-69
2022/07/16 09:50:55;;;;;;;13.53;12.93;;;24.60;92.40;;;;;;5010593;28;20459;-68
2022/07/16 09:53:24;;;;;;;13.73;13.10;;;24.40;93.10;;;;;;5010954;28;20468;-68
2022/07/16 09:56:00;;;;;;;14.93;14.13;;;25.10;93.30;;;;;;5010744;28;21138;-68
2022/07/16 09:58:29;;;;;;;13.90;13.20;;;26.50;91.40;;;;;;5018142;28;20466;-69
2022/07/16 10:00:58;;;;;;;14.27;13.67;;;26.70;91.50;;;;;;5040433;28;20456;-68
2022/07/16 10:03:25;;;;;;;14.20;13.10;;;26.30;90.20;;;;;;5011652;28;20488;-69
2022/07/16 10:05:54;;;;;;;14.50;13.70;;;26.70;85.80;;;;;;5012439;28;21332;-69
2022/07/16 10:08:22;;;;;;;15.00;14.23;;;27.10;85.00;;;;;;5033813;28;20467;-69
2022/07/16 10:10:50;;;;;;;14.00;13.40;;;27.90;81.50;;;;;;5035602;28;20975;-68
2022/07/16 10:13:22;;;;;;;14.03;13.33;;;27.50;80.30;;;;;;5038610;28;20811;-69
2022/07/16 10:15:49;;;;;;;13.70;13.10;;;28.30;80.20;;;;;;5011226;28;20488;-69
2022/07/16 10:18:33;;;;;;;14.70;13.90;;;27.90;78.30;;;;;;5011725;28;20797;-69
2022/07/16 10:21:08;;;;;;;14.07;13.23;;;27.30;77.10;;;;;;5011927;28;20466;-69
2022/07/16 10:23:37;;;;;;;13.30;12.70;;;25.60;80.30;;;;;;5012109;28;21069;-69
2022/07/16 10:26:07;;;;;;;13.83;13.00;;;25.70;79.40;;;;;;5011405;28;20468;-68
2022/07/16 10:28:41;;;;;;;14.20;13.50;;;25.90;76.90;;;;;;5010717;28;20468;-69
2022/07/16 10:31:40;;;;;;;14.23;13.60;;;26.50;75.70;;;;;;5010247;28;20475;-69
2022/07/16 10:34:37;;;;;;;13.97;13.30;;;27.60;74.10;;;;;;5010524;28;20680;-68
2022/07/16 10:37:07;;;;;;;13.67;13.07;;;27.00;73.00;;;;;;5009416;28;21092;-69
2022/07/16 10:39:35;;;;;;;14.43;13.63;;;26.60;76.20;;;;;;5010117;28;20506;-70
2022/07/16 10:42:03;;;;;;;13.37;12.77;;;27.20;73.60;;;;;;5009592;28;20464;-68
2022/07/16 10:44:44;;;;;;;13.70;13.10;;;28.00;70.20;;;;;;5008794;28;20974;-69
2022/07/16 10:47:12;;;;;;;14.30;13.70;;;27.80;68.40;;;;;;5009360;28;20460;-69
2022/07/16 10:49:38;;;;;;;13.87;13.17;;;27.00;69.30;;;;;;5006536;28;20722;-69
2022/07/16 10:52:08;;;;;;;13.50;12.90;;;26.20;71.40;;;;;;5009126;28;20468;-68
2022/07/16 10:54:37;;;;;;;14.20;13.43;;;26.10;73.40;;;;;;5008461;28;20482;-69
2022/07/16 10:57:04;;;;;;;13.73;13.07;;;25.60;73.40;;;;;;5008557;28;20467;-69
2022/07/16 10:59:33;;;;;;;14.57;13.47;;;25.70;72.60;;;;;;5009741;28;20475;-70
2022/07/16 11:02:02;;;;;;;13.83;13.10;;;26.50;74.20;;;;;;5006642;28;20466;-69
2022/07/16 11:04:32;;;;;;;14.30;13.60;;;27.50;69.80;;;;;;5008696;28;20468;-69
2022/07/16 11:07:00;;;;;;;14.80;14.00;;;26.80;68.20;;;;;;5008865;28;20475;-69
2022/07/16 11:09:30;;;;;;;14.43;13.73;;;25.60;68.00;;;;;;5030781;28;20633;-68
2022/07/16 11:12:07;;;;;;;13.60;13.00;;;24.30;69.60;;;;;;5034086;28;20940;-68
2022/07/16 11:14:34;;;;;;;12.90;12.27;;;24.40;69.40;;;;;;5006354;28;20495;-69
2022/07/16 11:17:03;;;;;;;13.87;13.07;;;25.50;68.40;;;;;;5008821;28;20460;-69
2022/07/16 11:19:35;;;;;;;14.20;13.20;;;26.30;69.00;;;;;;5007362;28;20760;-69
2022/07/16 11:22:02;;;;;;;13.67;12.87;;;25.60;66.70;;;;;;5004574;28;20479;-68
2022/07/16 11:24:32;;;;;;;13.30;12.50;;;25.10;66.90;;;;;;5008515;28;20517;-69
2022/07/16 11:26:59;;;;;;;14.13;13.10;;;25.80;68.90;;;;;;5008795;28;20457;-68
2022/07/16 11:29:27;;;;;;;13.53;12.93;;;26.60;66.90;;;;;;5009226;28;20980;-69
2022/07/16 11:31:55;;;;;;;14.10;13.20;;;26.80;67.60;;;;;;5009433;28;20564;-69
2022/07/16 11:34:23;;;;;;;13.00;12.30;;;26.10;70.00;;;;;;5009463;28;20515;-69
2022/07/16 11:36:51;;;;;;;13.27;12.57;;;26.10;69.20;;;;;;5007944;28;21192;-68
2022/07/16 11:39:20;;;;;;;14.13;13.23;;;25.90;68.70;;;;;;5009050;28;20483;-69
2022/07/16 11:41:50;;;;;;;13.90;13.10;;;26.60;70.00;;;;;;5009827;28;20468;-69
2022/07/16 11:44:19;;;;;;;13.50;12.70;;;25.70;69.30;;;;;;5008791;28;21424;-69
2022/07/16 11:46:48;;;;;;;13.00;12.10;;;24.90;70.20;;;;;;5008666;28;20476;-70
2022/07/16 11:49:23;;;;;;;13.20;12.60;;;25.30;70.20;;;;;;5008729;28;20492;-68
2022/07/16 11:51:50;;;;;;;13.70;13.00;;;26.40;68.90;;;;;;5007335;28;20456;-69
2022/07/16 11:54:17;;;;;;;13.43;12.83;;;26.30;65.70;;;;;;5007553;28;21290;-69
2022/07/16 11:56:44;;;;;;;13.27;12.67;;;25.70;68.10;;;;;;5008015;28;20463;-69
2022/07/16 11:59:21;;;;;;;13.30;12.70;;;24.70;68.80;;;;;;5009723;28;21146;-69
2022/07/16 12:01:56;;;;;;;13.50;12.80;;;24.40;71.00;;;;;;5008375;28;20474;-68
2022/07/16 12:04:32;;;;;;;13.70;12.87;;;24.10;70.20;;;;;;5006105;28;20514;-69
2022/07/16 12:06:58;;;;;;;13.70;12.80;;;24.00;70.00;;;;;;5008322;28;21466;-70
2022/07/16 12:09:34;;;;;;;13.57;12.87;;;25.20;68.20;;;;;;5007923;28;20467;-70
2022/07/16 12:12:05;;;;;;;14.70;13.60;;;26.40;64.10;;;;;;5007919;28;20474;-69
2022/07/16 12:14:50;;;;;;;12.97;12.27;;;27.10;64.60;;;;;;5007140;28;20530;-69
2022/07/16 12:17:25;;;;;;;13.50;12.80;;;26.70;61.90;;;;;;5006316;28;20456;-69
2022/07/16 12:20:25;;;;;;;13.57;12.83;;;26.70;60.80;;;;;;5010130;28;21246;-68
2022/07/16 12:22:55;;;;;;;14.13;13.27;;;26.10;62.60;;;;;;4974139;28;20570;-69
2022/07/16 12:25:37;;;;;;;13.10;12.50;;;26.70;60.60;;;;;;5010971;28;20467;-69
2022/07/16 12:28:07;;;;;;;13.73;12.83;;;26.50;59.90;;;;;;5010808;28;20472;-69
2022/07/16 12:30:38;;;;;;;13.10;12.60;;;26.50;62.30;;;;;;5011942;28;20549;-69
2022/07/16 12:33:07;;;;;;;13.50;12.80;;;26.70;59.80;;;;;;5012311;28;20475;-69
2022/07/16 12:35:48;;;;;;;23.83;13.20;;;27.00;59.00;;;;;;5011771;28;20494;-69
2022/07/16 12:38:49;;;;;;;13.57;12.63;;;27.90;58.40;;;;;;5011389;28;20468;-69
2022/07/16 12:41:18;;;;;;;13.13;12.53;;;27.60;56.90;;;;;;5011193;28;20469;-69
2022/07/16 12:43:53;;;;;;;13.27;12.57;;;28.00;58.10;;;;;;5010836;28;20467;-69